• Join FlightAware (Why Join?)
  • Login
  • US Flag 
02:45AM EDT


 

Airport Tracker/Info


-or-


 

Live Flight TrackerFlight Track Log ✈ THY2470 ✈ 16-Jul-2013 ✈ LTBA / IST - LTAF / ADA

Flight Track Log - Related Links

Times and Time Zones

All times are in EDT time to prevent confusion due to time zone crossing. See the THY2470 flight status page for this flight to view local times or setup timezone preferences in your user account.

Time Position Orientation Groundspeed Altitude Reporting Facility
EDT Latitude Longitude Course Direction KTS MPH feet Rate Location/Type
01:37PM 40.5218 29.6272 126° Southeast  Level Estimated
01:38PM 40.4563 29.7414 127° Southeast  Level Estimated
01:39PM 40.3907 29.8554 127° Southeast  Level Estimated
01:40PM 40.3250 29.9693 127° Southeast  Level Estimated
01:41PM 40.2592 30.0828 127° Southeast  Level Estimated
01:42PM 40.1932 30.1962 127° Southeast  Level Estimated
01:43PM 40.1272 30.3094 127° Southeast  Level Estimated
01:44PM 40.0611 30.4223 127° Southeast  Level Estimated
01:45PM 39.9948 30.5350 127° Southeast  Level Estimated
01:46PM 39.9285 30.6475 128° Southeast  Level Estimated
01:47PM 39.8620 30.7598 128° Southeast  Level Estimated
01:48PM 39.7954 30.8718 128° Southeast  Level Estimated
01:49PM 39.7287 30.9837 128° Southeast  Level Estimated
01:50PM 39.6619 31.0953 128° Southeast  Level Estimated
01:51PM 39.5951 31.2067 128° Southeast  Level Estimated
01:52PM 39.5280 31.3179 128° Southeast  Level Estimated
01:53PM 39.4609 31.4288 128° Southeast  Level Estimated
01:54PM 39.3937 31.5396 128° Southeast  Level Estimated
01:55PM 39.3264 31.6502 128° Southeast  Level Estimated
01:56PM 39.2590 31.7605 128° Southeast  Level Estimated
01:57PM 39.1914 31.8706 128° Southeast  Level Estimated
01:58PM 39.1238 31.9805 128° Southeast  Level Estimated
01:59PM 39.0561 32.0902 128° Southeast  Level Estimated
02:00PM 38.9883 32.1997 129° Southeast  Level Estimated
02:01PM 38.9203 32.3090 129° Southeast  Level Estimated
02:02PM 38.8523 32.4180 129° Southeast  Level Estimated
02:03PM 38.7841 32.5269 129° Southeast  Level Estimated
02:04PM 38.7159 32.6356 129° Southeast  Level Estimated
02:05PM 38.6475 32.7440 129° Southeast  Level Estimated
02:06PM 38.5791 32.8522 129° Southeast  Level Estimated
02:07PM 38.5106 32.9603 129° Southeast  Level Estimated
02:08PM 38.4419 33.0681 129° Southeast  Level Estimated
02:09PM 38.3732 33.1757 129° Southeast  Level Estimated
02:10PM 38.3044 33.2831 129° Southeast  Level Estimated
02:11PM 38.2354 33.3904 129° Southeast  Level Estimated
02:12PM 38.1664 33.4974 129° Southeast  Level Estimated
02:13PM 38.0973 33.6042 129° Southeast  Level Estimated
02:14PM 38.0280 33.7108 129° Southeast  Level Estimated
02:15PM 37.9587 33.8172 130° Southeast  Level Estimated
02:16PM 37.8893 33.9234 130° Southeast  Level Estimated
02:17PM 37.8198 34.0294 130° Southeast  Level Estimated
02:18PM 37.7502 34.1352 130° Southeast  Level Estimated
02:19PM 37.6805 34.2408 130° Southeast  Level Estimated
02:20PM 37.6107 34.3462 130° Southeast  Level Estimated
02:21PM 37.5408 34.4514 130° Southeast  Level Estimated
02:22PM 37.4708 34.5564 130° Southeast  Level Estimated
02:23PM 37.4007 34.6612 130° Southeast  Level Estimated
02:24PM 37.3305 34.7659 130° Southeast  Level Estimated
02:25PM 37.2603 34.8703 130° Southeast  Level Estimated
02:26PM 37.1899 34.9745 130° Southeast  Level Estimated
02:27PM 37.1195 35.0785 130° Southeast  Level Estimated
02:28PM 37.0490 35.1824 130° Southeast  Level Estimated
02:29PM 36.9822 35.2804 130° Southeast  Level Estimated
02:30PM 36.9822 35.2804 202° Southwest  Level Estimated
02:31PM 36.9822 35.2804 202° Southwest  Level Estimated
02:32PM 36.9822 35.2804 202° Southwest  Level Estimated
02:33PM 36.9822 35.2804 202° Southwest  Level Estimated
02:34PM 36.9822 35.2804 202° Southwest  Level Estimated
02:35PM 36.9822 35.2804 202° Southwest  Level Estimated
02:36PM 36.9822 35.2804 202° Southwest  Level Estimated
02:37PM 36.9822 35.2804 202° Southwest  Level Estimated
02:38PM 36.9822 35.2804 202° Southwest  Level Estimated
02:39PM 36.9822 35.2804 202° Southwest  Level Estimated
02:40PM 36.9822 35.2804 202° Southwest  Level Estimated
02:41PM 36.9822 35.2804 202° Southwest  Level Estimated
02:42PM 36.9822 35.2804 202° Southwest  Level Estimated
02:43PM 36.9822 35.2804 202° Southwest  Level Estimated
02:44PM 36.9822 35.2804 202° Southwest  Level Estimated
02:45PM 36.9822 35.2804 202° Southwest  Level Estimated